sensor_id;sensor_type;location;lat;lon;timestamp;P1;P2;P0
52290;PMS5003;39663;45.432;28.050;2023-09-18T00:00:20;19.0;19.0;
52290;PMS5003;39663;45.432;28.050;2023-09-18T00:00:53;17.0;16.0;
52290;PMS5003;39663;45.432;28.050;2023-09-18T00:01:25;20.0;17.0;
52290;PMS5003;39663;45.432;28.050;2023-09-18T00:01:56;17.0;15.0;
52290;PMS5003;39663;45.432;28.050;2023-09-18T00:02:27;15.0;14.0;
52290;PMS5003;39663;45.432;28.050;2023-09-18T00:02:59;14.0;14.0;
52290;PMS5003;39663;45.432;28.050;2023-09-18T00:03:31;15.0;15.0;
52290;PMS5003;39663;45.432;28.050;2023-09-18T00:04:03;14.0;14.0;
52290;PMS5003;39663;45.432;28.050;2023-09-18T00:04:34;19.0;17.0;
52290;PMS5003;39663;45.432;28.050;2023-09-18T00:05:06;17.0;17.0;
52290;PMS5003;39663;45.432;28.050;2023-09-18T00:05:38;17.0;16.0;
52290;PMS5003;39663;45.432;28.050;2023-09-18T00:06:09;16.0;14.0;
52290;PMS5003;39663;45.432;28.050;2023-09-18T00:06:41;23.0;20.0;
52290;PMS5003;39663;45.432;28.050;2023-09-18T00:07:12;15.0;15.0;
52290;PMS5003;39663;45.432;28.050;2023-09-18T00:07:44;19.0;18.0;
52290;PMS5003;39663;45.432;28.050;2023-09-18T00:08:16;16.0;15.0;
52290;PMS5003;39663;45.432;28.050;2023-09-18T00:08:48;14.0;14.0;
52290;PMS5003;39663;45.432;28.050;2023-09-18T00:09:19;16.0;16.0;
52290;PMS5003;39663;45.432;28.050;2023-09-18T00:09:51;19.0;16.0;
52290;PMS5003;39663;45.432;28.050;2023-09-18T00:10:22;19.0;15.0;
52290;PMS5003;39663;45.432;28.050;2023-09-18T00:10:56;16.0;16.0;
52290;PMS5003;39663;45.432;28.050;2023-09-18T00:11:28;16.0;15.0;
52290;PMS5003;39663;45.432;28.050;2023-09-18T00:12:00;17.0;17.0;
52290;PMS5003;39663;45.432;28.050;2023-09-18T00:12:31;16.0;15.0;
52290;PMS5003;39663;45.432;28.050;2023-09-18T00:13:03;17.0;17.0;
52290;PMS5003;39663;45.432;28.050;2023-09-18T00:13:35;17.0;17.0;
52290;PMS5003;39663;45.432;28.050;2023-09-18T00:14:07;22.0;19.0;
52290;PMS5003;39663;45.432;28.050;2023-09-18T00:14:38;20.0;19.0;
52290;PMS5003;39663;45.432;28.050;2023-09-18T00:15:10;17.0;17.0;
52290;PMS5003;39663;45.432;28.050;2023-09-18T00:15:41;20.0;18.0;
52290;PMS5003;39663;45.432;28.050;2023-09-18T00:16:13;16.0;15.0;
52290;PMS5003;39663;45.432;28.050;2023-09-18T00:16:44;15.0;14.0;
52290;PMS5003;39663;45.432;28.050;2023-09-18T00:17:16;15.0;15.0;
52290;PMS5003;39663;45.432;28.050;2023-09-18T00:17:48;14.0;14.0;
52290;PMS5003;39663;45.432;28.050;2023-09-18T00:18:19;14.0;14.0;
52290;PMS5003;39663;45.432;28.050;2023-09-18T00:18:51;22.0;19.0;
52290;PMS5003;39663;45.432;28.050;2023-09-18T00:19:23;16.0;16.0;
52290;PMS5003;39663;45.432;28.050;2023-09-18T00:19:54;17.0;15.0;
52290;PMS5003;39663;45.432;28.050;2023-09-18T00:20:26;14.0;14.0;
52290;PMS5003;39663;45.432;28.050;2023-09-18T00:20:57;20.0;20.0;
52290;PMS5003;39663;45.432;28.050;2023-09-18T00:21:29;15.0;15.0;
52290;PMS5003;39663;45.432;28.050;2023-09-18T00:22:01;20.0;18.0;
52290;PMS5003;39663;45.432;28.050;2023-09-18T00:22:32;17.0;17.0;
52290;PMS5003;39663;45.432;28.050;2023-09-18T00:23:04;19.0;16.0;
52290;PMS5003;39663;45.432;28.050;2023-09-18T00:23:35;20.0;19.0;
52290;PMS5003;39663;45.432;28.050;2023-09-18T00:24:07;24.0;22.0;
52290;PMS5003;39663;45.432;28.050;2023-09-18T00:24:38;15.0;15.0;
52290;PMS5003;39663;45.432;28.050;2023-09-18T00:25:10;18.0;16.0;
52290;PMS5003;39663;45.432;28.050;2023-09-18T00:25:41;19.0;19.0;
52290;PMS5003;39663;45.432;28.050;2023-09-18T00:26:13;20.0;18.0;
52290;PMS5003;39663;45.432;28.050;2023-09-18T00:26:44;16.0;16.0;
52290;PMS5003;39663;45.432;28.050;2023-09-18T00:27:16;19.0;16.0;
52290;PMS5003;39663;45.432;28.050;2023-09-18T00:27:47;20.0;19.0;
52290;PMS5003;39663;45.432;28.050;2023-09-18T00:28:19;18.0;16.0;
52290;PMS5003;39663;45.432;28.050;2023-09-18T00:28:50;20.0;18.0;
52290;PMS5003;39663;45.432;28.050;2023-09-18T00:29:22;16.0;15.0;
52290;PMS5003;39663;45.432;28.050;2023-09-18T00:29:53;20.0;18.0;
52290;PMS5003;39663;45.432;28.050;2023-09-18T00:30:25;17.0;15.0;
52290;PMS5003;39663;45.432;28.050;2023-09-18T00:30:56;14.0;14.0;
52290;PMS5003;39663;45.432;28.050;2023-09-18T00:31:28;16.0;16.0;
52290;PMS5003;39663;45.432;28.050;2023-09-18T00:31:59;18.0;18.0;
52290;PMS5003;39663;45.432;28.050;2023-09-18T00:32:31;16.0;16.0;
52290;PMS5003;39663;45.432;28.050;2023-09-18T00:33:03;22.0;22.0;
52290;PMS5003;39663;45.432;28.050;2023-09-18T00:33:35;16.0;16.0;
52290;PMS5003;39663;45.432;28.050;2023-09-18T00:34:06;17.0;17.0;
52290;PMS5003;39663;45.432;28.050;2023-09-18T00:34:37;15.0;15.0;
52290;PMS5003;39663;45.432;28.050;2023-09-18T00:35:09;17.0;16.0;
52290;PMS5003;39663;45.432;28.050;2023-09-18T00:35:44;19.0;17.0;
52290;PMS5003;39663;45.432;28.050;2023-09-18T00:36:17;20.0;16.0;
52290;PMS5003;39663;45.432;28.050;2023-09-18T00:36:49;16.0;14.0;
52290;PMS5003;39663;45.432;28.050;2023-09-18T00:37:20;19.0;18.0;
52290;PMS5003;39663;45.432;28.050;2023-09-18T00:37:52;24.0;23.0;
52290;PMS5003;39663;45.432;28.050;2023-09-18T00:38:23;16.0;15.0;
52290;PMS5003;39663;45.432;28.050;2023-09-18T00:38:55;15.0;15.0;
52290;PMS5003;39663;45.432;28.050;2023-09-18T00:39:26;17.0;17.0;
52290;PMS5003;39663;45.432;28.050;2023-09-18T00:39:58;16.0;14.0;
52290;PMS5003;39663;45.432;28.050;2023-09-18T00:40:29;14.0;14.0;
52290;PMS5003;39663;45.432;28.050;2023-09-18T00:41:01;18.0;18.0;
52290;PMS5003;39663;45.432;28.050;2023-09-18T00:41:32;20.0;20.0;
52290;PMS5003;39663;45.432;28.050;2023-09-18T00:42:04;20.0;18.0;
52290;PMS5003;39663;45.432;28.050;2023-09-18T00:42:36;14.0;14.0;
52290;PMS5003;39663;45.432;28.050;2023-09-18T00:43:08;17.0;14.0;
52290;PMS5003;39663;45.432;28.050;2023-09-18T00:43:39;14.0;14.0;
52290;PMS5003;39663;45.432;28.050;2023-09-18T00:44:11;16.0;16.0;
52290;PMS5003;39663;45.432;28.050;2023-09-18T00:44:43;16.0;16.0;
52290;PMS5003;39663;45.432;28.050;2023-09-18T00:45:14;19.0;16.0;
52290;PMS5003;39663;45.432;28.050;2023-09-18T00:45:46;18.0;18.0;
52290;PMS5003;39663;45.432;28.050;2023-09-18T00:46:19;18.0;17.0;
52290;PMS5003;39663;45.432;28.050;2023-09-18T00:46:50;17.0;16.0;
52290;PMS5003;39663;45.432;28.050;2023-09-18T00:47:23;21.0;20.0;
52290;PMS5003;39663;45.432;28.050;2023-09-18T00:47:55;16.0;15.0;
52290;PMS5003;39663;45.432;28.050;2023-09-18T00:48:26;17.0;17.0;
52290;PMS5003;39663;45.432;28.050;2023-09-18T00:48:58;18.0;18.0;
52290;PMS5003;39663;45.432;28.050;2023-09-18T00:49:30;13.0;12.0;
52290;PMS5003;39663;45.432;28.050;2023-09-18T00:50:02;18.0;18.0;
52290;PMS5003;39663;45.432;28.050;2023-09-18T00:50:37;18.0;17.0;
52290;PMS5003;39663;45.432;28.050;2023-09-18T00:51:08;23.0;23.0;
52290;PMS5003;39663;45.432;28.050;2023-09-18T00:51:40;18.0;16.0;
52290;PMS5003;39663;45.432;28.050;2023-09-18T00:52:12;18.0;17.0;
52290;PMS5003;39663;45.432;28.050;2023-09-18T00:52:44;18.0;18.0;
52290;PMS5003;39663;45.432;28.050;2023-09-18T00:53:17;19.0;15.0;
52290;PMS5003;39663;45.432;28.050;2023-09-18T00:53:50;18.0;18.0;
52290;PMS5003;39663;45.432;28.050;2023-09-18T00:54:22;19.0;19.0;
52290;PMS5003;39663;45.432;28.050;2023-09-18T00:54:54;16.0;16.0;
52290;PMS5003;39663;45.432;28.050;2023-09-18T00:55:26;18.0;17.0;
52290;PMS5003;39663;45.432;28.050;2023-09-18T00:55:58;17.0;16.0;
52290;PMS5003;39663;45.432;28.050;2023-09-18T00:56:34;20.0;18.0;
52290;PMS5003;39663;45.432;28.050;2023-09-18T00:57:05;18.0;16.0;
52290;PMS5003;39663;45.432;28.050;2023-09-18T00:57:39;19.0;18.0;
52290;PMS5003;39663;45.432;28.050;2023-09-18T00:58:11;18.0;16.0;
52290;PMS5003;39663;45.432;28.050;2023-09-18T00:58:44;21.0;18.0;
52290;PMS5003;39663;45.432;28.050;2023-09-18T00:59:16;20.0;19.0;
52290;PMS5003;39663;45.432;28.050;2023-09-18T00:59:48;20.0;16.0;
52290;PMS5003;39663;45.432;28.050;2023-09-18T01:00:20;16.0;16.0;
52290;PMS5003;39663;45.432;28.050;2023-09-18T01:00:52;18.0;16.0;
52290;PMS5003;39663;45.432;28.050;2023-09-18T01:01:24;18.0;16.0;
52290;PMS5003;39663;45.432;28.050;2023-09-18T01:01:55;18.0;18.0;
52290;PMS5003;39663;45.432;28.050;2023-09-18T01:02:27;16.0;16.0;
52290;PMS5003;39663;45.432;28.050;2023-09-18T01:02:58;18.0;18.0;
52290;PMS5003;39663;45.432;28.050;2023-09-18T01:03:32;18.0;17.0;
52290;PMS5003;39663;45.432;28.050;2023-09-18T01:04:04;22.0;22.0;
52290;PMS5003;39663;45.432;28.050;2023-09-18T01:04:36;20.0;20.0;
52290;PMS5003;39663;45.432;28.050;2023-09-18T01:05:08;15.0;15.0;
52290;PMS5003;39663;45.432;28.050;2023-09-18T01:05:39;17.0;16.0;
52290;PMS5003;39663;45.432;28.050;2023-09-18T01:06:11;18.0;18.0;
52290;PMS5003;39663;45.432;28.050;2023-09-18T01:06:43;18.0;18.0;
52290;PMS5003;39663;45.432;28.050;2023-09-18T01:07:15;17.0;17.0;
52290;PMS5003;39663;45.432;28.050;2023-09-18T01:07:46;18.0;18.0;
52290;PMS5003;39663;45.432;28.050;2023-09-18T01:08:17;22.0;21.0;
52290;PMS5003;39663;45.432;28.050;2023-09-18T01:08:49;15.0;15.0;
52290;PMS5003;39663;45.432;28.050;2023-09-18T01:09:20;19.0;19.0;
52290;PMS5003;39663;45.432;28.050;2023-09-18T01:09:52;19.0;16.0;
52290;PMS5003;39663;45.432;28.050;2023-09-18T01:10:24;23.0;19.0;
52290;PMS5003;39663;45.432;28.050;2023-09-18T01:11:04;17.0;15.0;
52290;PMS5003;39663;45.432;28.050;2023-09-18T01:11:44;18.0;18.0;
52290;PMS5003;39663;45.432;28.050;2023-09-18T01:12:23;17.0;15.0;
52290;PMS5003;39663;45.432;28.050;2023-09-18T01:13:04;21.0;19.0;
52290;PMS5003;39663;45.432;28.050;2023-09-18T01:13:43;16.0;15.0;
52290;PMS5003;39663;45.432;28.050;2023-09-18T01:14:25;17.0;17.0;
52290;PMS5003;39663;45.432;28.050;2023-09-18T01:15:06;16.0;16.0;
52290;PMS5003;39663;45.432;28.050;2023-09-18T01:15:43;17.0;16.0;
52290;PMS5003;39663;45.432;28.050;2023-09-18T01:16:20;13.0;13.0;
52290;PMS5003;39663;45.432;28.050;2023-09-18T01:16:59;17.0;17.0;
52290;PMS5003;39663;45.432;28.050;2023-09-18T01:17:35;20.0;19.0;
52290;PMS5003;39663;45.432;28.050;2023-09-18T01:18:08;22.0;19.0;
52290;PMS5003;39663;45.432;28.050;2023-09-18T01:18:48;19.0;18.0;
52290;PMS5003;39663;45.432;28.050;2023-09-18T01:19:34;16.0;16.0;
52290;PMS5003;39663;45.432;28.050;2023-09-18T01:20:09;18.0;16.0;
52290;PMS5003;39663;45.432;28.050;2023-09-18T01:20:41;17.0;17.0;
52290;PMS5003;39663;45.432;28.050;2023-09-18T01:21:14;18.0;18.0;
52290;PMS5003;39663;45.432;28.050;2023-09-18T01:21:45;20.0;16.0;
52290;PMS5003;39663;45.432;28.050;2023-09-18T01:22:18;19.0;16.0;
52290;PMS5003;39663;45.432;28.050;2023-09-18T01:22:50;18.0;18.0;
52290;PMS5003;39663;45.432;28.050;2023-09-18T01:23:21;15.0;15.0;
52290;PMS5003;39663;45.432;28.050;2023-09-18T01:23:53;19.0;16.0;
52290;PMS5003;39663;45.432;28.050;2023-09-18T01:24:24;18.0;16.0;
52290;PMS5003;39663;45.432;28.050;2023-09-18T01:24:56;19.0;19.0;
52290;PMS5003;39663;45.432;28.050;2023-09-18T01:25:28;23.0;21.0;
52290;PMS5003;39663;45.432;28.050;2023-09-18T01:26:02;17.0;16.0;
52290;PMS5003;39663;45.432;28.050;2023-09-18T01:26:34;19.0;19.0;
52290;PMS5003;39663;45.432;28.050;2023-09-18T01:27:07;19.0;16.0;
52290;PMS5003;39663;45.432;28.050;2023-09-18T01:27:40;19.0;17.0;
52290;PMS5003;39663;45.432;28.050;2023-09-18T01:28:11;17.0;14.0;
52290;PMS5003;39663;45.432;28.050;2023-09-18T01:28:43;24.0;22.0;
52290;PMS5003;39663;45.432;28.050;2023-09-18T01:29:14;16.0;15.0;
52290;PMS5003;39663;45.432;28.050;2023-09-18T01:29:46;20.0;17.0;
52290;PMS5003;39663;45.432;28.050;2023-09-18T01:30:18;20.0;19.0;
52290;PMS5003;39663;45.432;28.050;2023-09-18T01:30:49;18.0;16.0;
52290;PMS5003;39663;45.432;28.050;2023-09-18T01:31:21;16.0;16.0;
52290;PMS5003;39663;45.432;28.050;2023-09-18T01:31:53;19.0;17.0;
52290;PMS5003;39663;45.432;28.050;2023-09-18T01:32:26;16.0;16.0;
52290;PMS5003;39663;45.432;28.050;2023-09-18T01:33:00;19.0;18.0;
52290;PMS5003;39663;45.432;28.050;2023-09-18T01:33:34;17.0;16.0;
52290;PMS5003;39663;45.432;28.050;2023-09-18T01:34:07;18.0;15.0;
52290;PMS5003;39663;45.432;28.050;2023-09-18T01:34:40;21.0;18.0;
52290;PMS5003;39663;45.432;28.050;2023-09-18T01:35:15;17.0;16.0;
52290;PMS5003;39663;45.432;28.050;2023-09-18T01:35:48;15.0;14.0;
52290;PMS5003;39663;45.432;28.050;2023-09-18T01:36:20;14.0;14.0;
52290;PMS5003;39663;45.432;28.050;2023-09-18T01:36:53;16.0;16.0;
52290;PMS5003;39663;45.432;28.050;2023-09-18T01:37:26;14.0;13.0;
52290;PMS5003;39663;45.432;28.050;2023-09-18T01:38:00;18.0;15.0;
52290;PMS5003;39663;45.432;28.050;2023-09-18T01:38:32;20.0;19.0;
52290;PMS5003;39663;45.432;28.050;2023-09-18T01:39:05;24.0;20.0;
52290;PMS5003;39663;45.432;28.050;2023-09-18T01:39:37;23.0;19.0;
52290;PMS5003;39663;45.432;28.050;2023-09-18T01:40:12;17.0;15.0;
52290;PMS5003;39663;45.432;28.050;2023-09-18T01:40:44;18.0;17.0;
52290;PMS5003;39663;45.432;28.050;2023-09-18T01:41:15;16.0;15.0;
52290;PMS5003;39663;45.432;28.050;2023-09-18T01:41:47;16.0;16.0;
52290;PMS5003;39663;45.432;28.050;2023-09-18T01:42:19;16.0;16.0;
52290;PMS5003;39663;45.432;28.050;2023-09-18T01:42:50;19.0;17.0;
52290;PMS5003;39663;45.432;28.050;2023-09-18T01:43:22;17.0;17.0;
52290;PMS5003;39663;45.432;28.050;2023-09-18T01:43:54;17.0;17.0;
52290;PMS5003;39663;45.432;28.050;2023-09-18T01:44:25;16.0;15.0;
52290;PMS5003;39663;45.432;28.050;2023-09-18T01:44:57;19.0;19.0;
52290;PMS5003;39663;45.432;28.050;2023-09-18T01:45:29;15.0;15.0;
52290;PMS5003;39663;45.432;28.050;2023-09-18T01:46:01;18.0;16.0;
52290;PMS5003;39663;45.432;28.050;2023-09-18T01:46:33;15.0;15.0;
52290;PMS5003;39663;45.432;28.050;2023-09-18T01:47:06;17.0;17.0;
52290;PMS5003;39663;45.432;28.050;2023-09-18T01:47:38;15.0;15.0;
52290;PMS5003;39663;45.432;28.050;2023-09-18T01:48:10;16.0;16.0;
52290;PMS5003;39663;45.432;28.050;2023-09-18T01:48:45;16.0;16.0;
52290;PMS5003;39663;45.432;28.050;2023-09-18T01:49:26;19.0;17.0;
52290;PMS5003;39663;45.432;28.050;2023-09-18T01:49:59;15.0;15.0;
52290;PMS5003;39663;45.432;28.050;2023-09-18T01:50:33;17.0;17.0;
52290;PMS5003;39663;45.432;28.050;2023-09-18T01:51:07;16.0;14.0;
52290;PMS5003;39663;45.432;28.050;2023-09-18T01:51:38;15.0;12.0;
52290;PMS5003;39663;45.432;28.050;2023-09-18T01:52:09;17.0;15.0;
52290;PMS5003;39663;45.432;28.050;2023-09-18T01:52:41;16.0;15.0;
52290;PMS5003;39663;45.432;28.050;2023-09-18T01:53:13;14.0;14.0;
52290;PMS5003;39663;45.432;28.050;2023-09-18T01:53:44;15.0;14.0;
52290;PMS5003;39663;45.432;28.050;2023-09-18T01:54:15;62.0;60.0;
52290;PMS5003;39663;45.432;28.050;2023-09-18T01:54:48;24.0;22.0;
52290;PMS5003;39663;45.432;28.050;2023-09-18T01:55:20;26.0;21.0;
52290;PMS5003;39663;45.432;28.050;2023-09-18T01:55:52;21.0;21.0;
52290;PMS5003;39663;45.432;28.050;2023-09-18T01:56:24;17.0;17.0;
52290;PMS5003;39663;45.432;28.050;2023-09-18T01:56:55;20.0;16.0;
52290;PMS5003;39663;45.432;28.050;2023-09-18T01:57:27;22.0;17.0;
52290;PMS5003;39663;45.432;28.050;2023-09-18T01:57:59;20.0;18.0;
52290;PMS5003;39663;45.432;28.050;2023-09-18T01:58:30;15.0;13.0;
52290;PMS5003;39663;45.432;28.050;2023-09-18T01:59:02;22.0;16.0;
52290;PMS5003;39663;45.432;28.050;2023-09-18T01:59:33;23.0;23.0;
52290;PMS5003;39663;45.432;28.050;2023-09-18T02:00:06;18.0;17.0;
52290;PMS5003;39663;45.432;28.050;2023-09-18T02:00:38;21.0;18.0;
52290;PMS5003;39663;45.432;28.050;2023-09-18T02:01:09;17.0;15.0;
52290;PMS5003;39663;45.432;28.050;2023-09-18T02:01:41;15.0;15.0;
52290;PMS5003;39663;45.432;28.050;2023-09-18T02:02:12;19.0;17.0;
52290;PMS5003;39663;45.432;28.050;2023-09-18T02:02:44;18.0;18.0;
52290;PMS5003;39663;45.432;28.050;2023-09-18T02:03:15;15.0;15.0;
52290;PMS5003;39663;45.432;28.050;2023-09-18T02:03:46;16.0;16.0;
52290;PMS5003;39663;45.432;28.050;2023-09-18T02:04:18;19.0;19.0;
52290;PMS5003;39663;45.432;28.050;2023-09-18T02:04:50;18.0;18.0;
52290;PMS5003;39663;45.432;28.050;2023-09-18T02:05:22;19.0;18.0;
52290;PMS5003;39663;45.432;28.050;2023-09-18T02:05:53;18.0;18.0;
52290;PMS5003;39663;45.432;28.050;2023-09-18T02:06:25;20.0;17.0;
52290;PMS5003;39663;45.432;28.050;2023-09-18T02:06:56;16.0;16.0;
52290;PMS5003;39663;45.432;28.050;2023-09-18T02:07:28;19.0;18.0;
52290;PMS5003;39663;45.432;28.050;2023-09-18T02:08:00;16.0;14.0;
52290;PMS5003;39663;45.432;28.050;2023-09-18T02:08:32;13.0;13.0;
52290;PMS5003;39663;45.432;28.050;2023-09-18T02:09:03;17.0;16.0;
52290;PMS5003;39663;45.432;28.050;2023-09-18T02:09:35;17.0;16.0;
52290;PMS5003;39663;45.432;28.050;2023-09-18T02:10:07;18.0;18.0;
52290;PMS5003;39663;45.432;28.050;2023-09-18T02:10:39;14.0;14.0;
52290;PMS5003;39663;45.432;28.050;2023-09-18T02:11:10;17.0;16.0;
52290;PMS5003;39663;45.432;28.050;2023-09-18T02:11:42;18.0;15.0;
52290;PMS5003;39663;45.432;28.050;2023-09-18T02:12:15;21.0;20.0;
52290;PMS5003;39663;45.432;28.050;2023-09-18T02:12:47;23.0;18.0;
52290;PMS5003;39663;45.432;28.050;2023-09-18T02:13:18;21.0;21.0;
52290;PMS5003;39663;45.432;28.050;2023-09-18T02:13:50;16.0;16.0;
52290;PMS5003;39663;45.432;28.050;2023-09-18T02:14:21;17.0;16.0;
52290;PMS5003;39663;45.432;28.050;2023-09-18T02:14:53;15.0;14.0;
52290;PMS5003;39663;45.432;28.050;2023-09-18T02:15:24;15.0;14.0;
52290;PMS5003;39663;45.432;28.050;2023-09-18T02:15:56;17.0;16.0;
52290;PMS5003;39663;45.432;28.050;2023-09-18T02:16:27;15.0;15.0;
52290;PMS5003;39663;45.432;28.050;2023-09-18T02:16:59;15.0;15.0;
52290;PMS5003;39663;45.432;28.050;2023-09-18T02:17:31;21.0;21.0;
52290;PMS5003;39663;45.432;28.050;2023-09-18T02:18:03;17.0;15.0;
52290;PMS5003;39663;45.432;28.050;2023-09-18T02:18:34;16.0;15.0;
52290;PMS5003;39663;45.432;28.050;2023-09-18T02:19:06;24.0;18.0;
52290;PMS5003;39663;45.432;28.050;2023-09-18T02:19:38;20.0;17.0;
52290;PMS5003;39663;45.432;28.050;2023-09-18T02:20:10;18.0;17.0;
52290;PMS5003;39663;45.432;28.050;2023-09-18T02:20:42;15.0;12.0;
52290;PMS5003;39663;45.432;28.050;2023-09-18T02:21:18;14.0;12.0;
52290;PMS5003;39663;45.432;28.050;2023-09-18T02:21:50;16.0;15.0;
52290;PMS5003;39663;45.432;28.050;2023-09-18T02:22:21;14.0;14.0;
52290;PMS5003;39663;45.432;28.050;2023-09-18T02:22:53;15.0;15.0;
52290;PMS5003;39663;45.432;28.050;2023-09-18T02:23:24;16.0;14.0;
52290;PMS5003;39663;45.432;28.050;2023-09-18T02:23:55;17.0;17.0;
52290;PMS5003;39663;45.432;28.050;2023-09-18T02:24:27;19.0;17.0;
52290;PMS5003;39663;45.432;28.050;2023-09-18T02:24:59;16.0;16.0;
52290;PMS5003;39663;45.432;28.050;2023-09-18T02:25:30;17.0;17.0;
52290;PMS5003;39663;45.432;28.050;2023-09-18T02:26:02;17.0;16.0;
52290;PMS5003;39663;45.432;28.050;2023-09-18T02:26:33;16.0;16.0;
52290;PMS5003;39663;45.432;28.050;2023-09-18T02:27:05;15.0;15.0;
52290;PMS5003;39663;45.432;28.050;2023-09-18T02:27:37;19.0;18.0;
52290;PMS5003;39663;45.432;28.050;2023-09-18T02:28:09;15.0;13.0;
52290;PMS5003;39663;45.432;28.050;2023-09-18T02:28:40;17.0;16.0;
52290;PMS5003;39663;45.432;28.050;2023-09-18T02:29:12;18.0;17.0;
52290;PMS5003;39663;45.432;28.050;2023-09-18T02:29:43;14.0;14.0;
52290;PMS5003;39663;45.432;28.050;2023-09-18T02:30:15;19.0;19.0;
52290;PMS5003;39663;45.432;28.050;2023-09-18T02:30:46;20.0;19.0;
52290;PMS5003;39663;45.432;28.050;2023-09-18T02:31:18;16.0;14.0;
52290;PMS5003;39663;45.432;28.050;2023-09-18T02:31:49;14.0;13.0;
52290;PMS5003;39663;45.432;28.050;2023-09-18T02:32:21;16.0;15.0;
52290;PMS5003;39663;45.432;28.050;2023-09-18T02:32:52;12.0;11.0;
52290;PMS5003;39663;45.432;28.050;2023-09-18T02:33:24;17.0;16.0;
52290;PMS5003;39663;45.432;28.050;2023-09-18T02:33:55;13.0;11.0;
52290;PMS5003;39663;45.432;28.050;2023-09-18T02:34:26;16.0;15.0;
52290;PMS5003;39663;45.432;28.050;2023-09-18T02:34:58;13.0;12.0;
52290;PMS5003;39663;45.432;28.050;2023-09-18T02:35:29;12.0;12.0;
52290;PMS5003;39663;45.432;28.050;2023-09-18T02:36:01;13.0;11.0;
52290;PMS5003;39663;45.432;28.050;2023-09-18T02:36:33;15.0;14.0;
52290;PMS5003;39663;45.432;28.050;2023-09-18T02:37:05;13.0;13.0;
52290;PMS5003;39663;45.432;28.050;2023-09-18T02:37:36;20.0;18.0;
52290;PMS5003;39663;45.432;28.050;2023-09-18T02:38:08;17.0;15.0;
52290;PMS5003;39663;45.432;28.050;2023-09-18T02:38:39;16.0;16.0;
52290;PMS5003;39663;45.432;28.050;2023-09-18T02:39:11;20.0;16.0;
52290;PMS5003;39663;45.432;28.050;2023-09-18T02:39:42;17.0;15.0;
52290;PMS5003;39663;45.432;28.050;2023-09-18T02:40:14;19.0;19.0;
52290;PMS5003;39663;45.432;28.050;2023-09-18T02:40:45;16.0;16.0;
52290;PMS5003;39663;45.432;28.050;2023-09-18T02:41:17;25.0;21.0;
52290;PMS5003;39663;45.432;28.050;2023-09-18T02:41:49;15.0;14.0;
52290;PMS5003;39663;45.432;28.050;2023-09-18T02:42:20;17.0;15.0;
52290;PMS5003;39663;45.432;28.050;2023-09-18T02:42:52;14.0;10.0;
52290;PMS5003;39663;45.432;28.050;2023-09-18T02:43:23;19.0;17.0;
52290;PMS5003;39663;45.432;28.050;2023-09-18T02:43:55;18.0;15.0;
52290;PMS5003;39663;45.432;28.050;2023-09-18T02:44:27;22.0;20.0;
52290;PMS5003;39663;45.432;28.050;2023-09-18T02:44:58;18.0;17.0;
52290;PMS5003;39663;45.432;28.050;2023-09-18T02:45:30;16.0;15.0;
52290;PMS5003;39663;45.432;28.050;2023-09-18T02:46:01;15.0;14.0;
52290;PMS5003;39663;45.432;28.050;2023-09-18T02:46:33;14.0;11.0;
52290;PMS5003;39663;45.432;28.050;2023-09-18T02:47:04;16.0;15.0;
52290;PMS5003;39663;45.432;28.050;2023-09-18T02:47:36;17.0;16.0;
52290;PMS5003;39663;45.432;28.050;2023-09-18T02:48:07;16.0;13.0;
52290;PMS5003;39663;45.432;28.050;2023-09-18T02:48:39;15.0;14.0;
52290;PMS5003;39663;45.432;28.050;2023-09-18T02:49:10;16.0;14.0;
52290;PMS5003;39663;45.432;28.050;2023-09-18T02:49:42;16.0;15.0;
52290;PMS5003;39663;45.432;28.050;2023-09-18T02:50:14;16.0;15.0;
52290;PMS5003;39663;45.432;28.050;2023-09-18T02:50:45;13.0;13.0;
52290;PMS5003;39663;45.432;28.050;2023-09-18T02:51:17;13.0;13.0;
52290;PMS5003;39663;45.432;28.050;2023-09-18T02:51:49;16.0;15.0;
52290;PMS5003;39663;45.432;28.050;2023-09-18T02:52:20;14.0;14.0;
52290;PMS5003;39663;45.432;28.050;2023-09-18T02:52:52;15.0;15.0;
52290;PMS5003;39663;45.432;28.050;2023-09-18T02:53:24;13.0;13.0;
52290;PMS5003;39663;45.432;28.050;2023-09-18T02:53:55;16.0;15.0;
52290;PMS5003;39663;45.432;28.050;2023-09-18T02:54:27;15.0;14.0;
52290;PMS5003;39663;45.432;28.050;2023-09-18T02:54:58;14.0;11.0;
52290;PMS5003;39663;45.432;28.050;2023-09-18T02:55:30;61.0;58.0;
52290;PMS5003;39663;45.432;28.050;2023-09-18T02:56:02;36.0;30.0;
52290;PMS5003;39663;45.432;28.050;2023-09-18T02:56:33;35.0;34.0;
52290;PMS5003;39663;45.432;28.050;2023-09-18T02:57:05;58.0;55.0;
52290;PMS5003;39663;45.432;28.050;2023-09-18T02:57:36;43.0;37.0;
52290;PMS5003;39663;45.432;28.050;2023-09-18T02:58:08;20.0;19.0;
52290;PMS5003;39663;45.432;28.050;2023-09-18T02:58:39;18.0;15.0;
52290;PMS5003;39663;45.432;28.050;2023-09-18T02:59:11;44.0;41.0;
52290;PMS5003;39663;45.432;28.050;2023-09-18T02:59:42;51.0;47.0;
52290;PMS5003;39663;45.432;28.050;2023-09-18T03:00:14;43.0;42.0;
52290;PMS5003;39663;45.432;28.050;2023-09-18T03:00:46;26.0;24.0;
52290;PMS5003;39663;45.432;28.050;2023-09-18T03:01:21;82.0;69.0;
52290;PMS5003;39663;45.432;28.050;2023-09-18T03:01:52;97.0;90.0;
52290;PMS5003;39663;45.432;28.050;2023-09-18T03:02:24;67.0;62.0;
52290;PMS5003;39663;45.432;28.050;2023-09-18T03:02:55;31.0;29.0;
52290;PMS5003;39663;45.432;28.050;2023-09-18T03:03:27;32.0;30.0;
52290;PMS5003;39663;45.432;28.050;2023-09-18T03:03:58;24.0;20.0;
52290;PMS5003;39663;45.432;28.050;2023-09-18T03:04:31;33.0;31.0;
52290;PMS5003;39663;45.432;28.050;2023-09-18T03:05:02;25.0;23.0;
52290;PMS5003;39663;45.432;28.050;2023-09-18T03:05:34;29.0;25.0;
52290;PMS5003;39663;45.432;28.050;2023-09-18T03:06:06;28.0;24.0;
52290;PMS5003;39663;45.432;28.050;2023-09-18T03:06:38;20.0;18.0;
52290;PMS5003;39663;45.432;28.050;2023-09-18T03:07:11;28.0;28.0;
52290;PMS5003;39663;45.432;28.050;2023-09-18T03:07:43;31.0;28.0;
52290;PMS5003;39663;45.432;28.050;2023-09-18T03:08:15;21.0;21.0;
52290;PMS5003;39663;45.432;28.050;2023-09-18T03:08:46;27.0;25.0;
52290;PMS5003;39663;45.432;28.050;2023-09-18T03:09:18;29.0;26.0;
52290;PMS5003;39663;45.432;28.050;2023-09-18T03:09:50;37.0;37.0;
52290;PMS5003;39663;45.432;28.050;2023-09-18T03:10:23;33.0;32.0;
52290;PMS5003;39663;45.432;28.050;2023-09-18T03:10:56;33.0;31.0;
52290;PMS5003;39663;45.432;28.050;2023-09-18T03:11:30;70.0;63.0;
52290;PMS5003;39663;45.432;28.050;2023-09-18T03:12:02;47.0;42.0;
52290;PMS5003;39663;45.432;28.050;2023-09-18T03:12:34;23.0;23.0;
52290;PMS5003;39663;45.432;28.050;2023-09-18T03:13:05;24.0;21.0;
52290;PMS5003;39663;45.432;28.050;2023-09-18T03:13:42;23.0;19.0;
52290;PMS5003;39663;45.432;28.050;2023-09-18T03:14:14;37.0;36.0;
52290;PMS5003;39663;45.432;28.050;2023-09-18T03:14:45;33.0;31.0;
52290;PMS5003;39663;45.432;28.050;2023-09-18T03:15:17;29.0;28.0;
52290;PMS5003;39663;45.432;28.050;2023-09-18T03:15:49;23.0;23.0;
52290;PMS5003;39663;45.432;28.050;2023-09-18T03:16:21;26.0;25.0;
52290;PMS5003;39663;45.432;28.050;2023-09-18T03:16:53;18.0;18.0;
52290;PMS5003;39663;45.432;28.050;2023-09-18T03:17:24;26.0;25.0;